Terminal Aerodrome Forecast
Issued by NWS Norman, OK

Home | Current Version | Previous Version | Text Only | Print | Product List | Glossary On
Versions: 1 2 3 4 5 6 7 8 9 10 11 12 13 14 15 16 17 18 19 20 21 22 23 24 25 26 27 28 29 30 31
886
FTUS44 KOUN 171125
TAFOKC
TAF
KOKC 171125Z 1712/1812 32006KT P6SM OVC015
     FM171300 34006KT P6SM SCT040
     FM180000 VRB04KT P6SM BKN100
     FM180500 VRB03KT P6SM VCSH OVC030=

USA.gov is the U.S. government's official web portal to all federal, state and local government web resources and services.